Estación Meteorológica Peña el Pijo (Robertgarden) [ 07/23/19 00:05:34 CEST ]

Fecha Hora Presion(HPa) Temp (°C) Humedad % Rocio (°C) Viento ( m/s) Direccion Lluvia 1Hora(mm) Lluvia 24H(mm) LLuvia Total(mm)
2019-Jul-17 01:01:51 1010.600 19.2 72 14.0         342.62
2019-Jul-17 02:01:46 1010.500 17.8 76 13.5         342.62
2019-Jul-17 03:01:40 1010.400 16.3 77 12.3         342.62
2019-Jul-17 04:01:44 1010.200 15.4 80 12.0         342.62
2019-Jul-17 05:01:43 1009.600 14.9 82 11.9         342.62
2019-Jul-17 06:01:47 1009.300 14.5 83 11.6         342.62
2019-Jul-17 07:01:41 1009.200 13.9 84 11.2         342.62
2019-Jul-17 08:01:44 1009.300 14.9 85 12.4         342.62
2019-Jul-17 09:01:42 1009.600 20.3 74 15.5         342.62
2019-Jul-17 08:01:51 1009.600 23.8 63 16.3         342.62
2019-Jul-17 10:01:49 1009.300 25.8 57 16.6         342.62
2019-Jul-17 11:01:50 1009.500 28.2 48 16.1         342.62
2019-Jul-17 12:01:53 1009.300 30.0 38 14.1 0.7 WNW     342.62
2019-Jul-17 13:01:53 1009.100 30.5 34 12.8 2.1 SSW     342.62
2019-Jul-17 14:01:57 1008.400 32.4 27 10.8 1.1 SW     342.62
2019-Jul-17 15:01:36 1008.200 30.3 31 11.3 1.6 NNE     342.62
2019-Jul-17 16:02:08 1007.700 32.1 30 11.8         342.62
2019-Jul-17 17:01:44 1007.600 30.6 30 11.1         342.62
2019-Jul-17 18:02:04 1007.600 27.6 38 12.0         342.62
2019-Jul-17 19:01:38 1007.800 21.3 73 16.2     1.55 1.55 344.18
2019-Jul-17 20:01:41 1009.100 19.8 75 15.2       1.55 344.18
2019-Jul-17 21:01:35 1009.000 19.5 77 15.4       1.55 344.18
2019-Jul-17 22:01:41 1009.300 18.1 79 14.4       1.55 344.18
2019-Jul-17 23:01:36 1010.000 17.6 80 14.1       1.55 344.18

Temperatura Máxima:32°    Temperatura Mínima:13°
Presión Máxima:1010.600 Hpa    Presión Mínima:1007.600 Hpa


Volver